Nowata, Oklahoma
Current Conditions -  °F | °C
As of 2:53 PM on Tuesday 25 Nov 2014 (Local Time) from KBVO Reporting Station
Clear Clear  
Wind Chill: 50°   Ceiling: Unl
Heat Index: 50°   Visibility: 10mi
Dew Point: 21°   Wind: 7mph
Humidity: 32%   Direction: 220°SW
Pressure: 30.16"   Gusts: NA
Location:  36.7°N, 95.64°W
Report Text: KBVO 252053Z 22006KT 10SM CLR 10/M06 A3016 RMK AO2 SLP212 T01001061 56035
Loading
Personal Weather Stations






























Interactive Weather Map New forecast layout! Learn more

10-Day Weather Forecast

Advertisements
Track Severe Weather on mobile